Terminal Aerodrome Forecast
Issued by NWS Pittsburgh, PA

Current Version | Previous Version | Text Only | Print | Product List | Glossary Off
Versions: 1 2 3 4 5 6 7 8 9 10 11 12 13 14 15 16 17 18 19 20 21 22 23 24 25 26 27 28 29 30 31

000
FTUS41 KPBZ 190236 AAA
TAFPIT
TAF AMD
KPIT 190236Z 1903/2006 15006KT P6SM SCT250
     FM190600 15007KT P6SM BKN250 WS020/19035KT
     FM191300 17009KT 5SM -RA BR OVC020 WS020/21035KT
     FM191900 20010KT P6SM VCSH OVC012 WS020/21035KT
     FM192200 19009KT P6SM BKN060 WS020/22040KT=

USA.gov is the U.S. government's official web portal to all federal, state and local government web resources and services.